Map

Track Data

SID SEASON NUMBER BASIN SUBBASIN NAME ISO_TIME NATURE LAT LON WMO_WIND WMO_PRES WMO_AGENCY TRACK_TYPE DIST2LAND LANDFALL IFLAG USA_AGENCY USA_ATCF_ID USA_LAT USA_LON USA_RECORD USA_STATUS USA_WIND USA_PRES USA_SSHS USA_R34_NE USA_R34_SE USA_R34_SW USA_R34_NW USA_R50_NE USA_R50_SE USA_R50_SW USA_R50_NW USA_R64_NE USA_R64_SE USA_R64_SW USA_R64_NW USA_POCI USA_ROCI USA_RMW USA_EYE TOKYO_LAT TOKYO_LON TOKYO_GRADE TOKYO_WIND TOKYO_PRES TOKYO_R50_DIR TOKYO_R50_LONG TOKYO_R50_SHORT TOKYO_R30_DIR TOKYO_R30_LONG TOKYO_R30_SHORT TOKYO_LAND CMA_LAT CMA_LON CMA_CAT CMA_WIND CMA_PRES HKO_LAT HKO_LON HKO_CAT HKO_WIND HKO_PRES NEWDELHI_LAT NEWDELHI_LON NEWDELHI_GRADE NEWDELHI_WIND NEWDELHI_PRES NEWDELHI_CI NEWDELHI_DP NEWDELHI_POCI REUNION_LAT REUNION_LON REUNION_TYPE REUNION_WIND REUNION_PRES REUNION_TNUM REUNION_CI REUNION_RMW REUNION_R34_NE REUNION_R34_SE REUNION_R34_SW REUNION_R34_NW REUNION_R50_NE REUNION_R50_SE REUNION_R50_SW REUNION_R50_NW REUNION_R64_NE REUNION_R64_SE REUNION_R64_SW REUNION_R64_NW BOM_LAT BOM_LON BOM_TYPE BOM_WIND BOM_PRES BOM_TNUM BOM_CI BOM_RMW BOM_R34_NE BOM_R34_SE BOM_R34_SW BOM_R34_NW BOM_R50_NE BOM_R50_SE BOM_R50_SW BOM_R50_NW BOM_R64_NE BOM_R64_SE BOM_R64_SW BOM_R64_NW BOM_ROCI BOM_POCI BOM_EYE BOM_POS_METHOD BOM_PRES_METHOD NADI_LAT NADI_LON NADI_CAT NADI_WIND NADI_PRES WELLINGTON_LAT WELLINGTON_LON WELLINGTON_WIND WELLINGTON_PRES DS824_LAT DS824_LON DS824_STAGE DS824_WIND DS824_PRES TD9636_LAT TD9636_LON TD9636_STAGE TD9636_WIND TD9636_PRES TD9635_LAT TD9635_LON TD9635_WIND TD9635_PRES TD9635_ROCI NEUMANN_LAT NEUMANN_LON NEUMANN_CLASS NEUMANN_WIND NEUMANN_PRES MLC_LAT MLC_LON MLC_CLASS MLC_WIND MLC_PRES USA_GUST BOM_GUST BOM_GUST_PER REUNION_GUST REUNION_GUST_PER USA_SEAHGT USA_SEARAD_NE USA_SEARAD_SE USA_SEARAD_SW USA_SEARAD_NW STORM_SPEED STORM_DIR
1974046S20182 1974 14 SP MM NOT_NAMED 1974-02-14 12:00:00 TS -20.0000 182.000 main 406 324 O________OO___ jtwc_sh SH221974 -20.0000 -178.000 -1 -20.0000 182.000 TC -20.0000 -178.000 2 18 328
1974046S20182 1974 14 SP MM NOT_NAMED 1974-02-14 15:00:00 TS -19.2562 181.502 main 324 242 P________PP___ SH221974 -19.2253 -178.496 -1 -19.2253 -178.496 TC -19.3181 -178.502 2 17 325
1974046S20182 1974 14 SP MM NOT_NAMED 1974-02-14 18:00:00 TS -18.6461 180.996 main 232 179 O________OP___ jtwc_sh SH221974 -18.6000 -179.000 -1 -18.6000 181.000 TC -18.7384 -179.011 2 14 314
1974046S20182 1974 14 SP MM NOT_NAMED 1974-02-14 21:00:00 TS -18.2964 180.469 main 179 128 P________PP___ SH221974 -18.2623 -179.528 -1 -18.2623 -179.528 TC -18.3646 -179.539 2 11 288
1974046S20182 1974 14 SP MM NOT_NAMED 1974-02-15 00:00:00 TS -18.3000 179.900 main 128 92 O________OO_O_ jtwc_sh SH221974 -18.3000 179.900 -1 -18.3000 179.900 TC 35 -18.3000 179.900 2 -18.3000 179.900 TC 20 12 248
1974046S20182 1974 14 SP MM NOT_NAMED 1974-02-15 03:00:00 TS -18.7440 179.287 main 92 92 P________PP_P_ SH221974 -18.7524 179.273 -1 -18.7524 179.273 TC 35 -18.6041 179.293 2 -18.9903 179.328 TC 20 16 228
1974046S20182 1974 14 SP MM NOT_NAMED 1974-02-15 06:00:00 TS -19.3764 178.630 main 130 130 O________OP_O_ jtwc_sh SH221974 -19.4000 178.600 -1 -19.4000 178.600 TC 35 -19.1616 178.639 2 -19.6000 178.700 TC 20 18 226
1974046S20182 1974 14 SP MM NOT_NAMED 1974-02-15 09:00:00 TS -19.9462 177.945 main 178 178 P________PP_P_ SH221974 -19.9520 177.930 -1 -19.9520 177.930 TC 35 -19.8133 177.940 2 -20.0673 177.980 TC 22 17 233
1974046S20182 1974 14 SP MM NOT_NAMED 1974-02-15 12:00:00 TS -20.4000 177.200 main 246 246 O________OO_O_ jtwc_sh SH221974 -20.4000 177.200 -1 -20.4000 177.200 TC 35 -20.4000 177.200 2 -20.4000 177.200 TC 25 16 244
1974046S20182 1974 14 SP MM NOT_NAMED 1974-02-15 15:00:00 TS -20.6566 176.378 main 305 305 P________PP_P_ SH221974 -20.6451 176.357 -1 -20.6451 176.357 TC 35 -20.7065 176.390 2 -20.6297 176.407 TC 25 16 255
1974046S20182 1974 14 SP MM NOT_NAMED 1974-02-15 18:00:00 TS -20.8304 175.538 main 356 356 O________OP_O_ jtwc_sh SH221974 -20.8000 175.500 -1 -20.8000 175.500 TC 35 -20.9214 175.553 2 -20.8000 175.600 TC 25 16 256
1974046S20182 1974 14 SP MM NOT_NAMED 1974-02-15 21:00:00 TS -21.0300 174.728 main 423 423 P________PP_P_ SH221974 -21.0148 174.705 -1 -21.0148 174.705 TC 35 -21.0754 174.740 2 -21.0151 174.763 TC 27 15 256
1974046S20182 1974 14 SP MM NOT_NAMED 1974-02-16 00:00:00 TS -21.2000 174.000 main 489 489 O________OO_O_ jtwc_sh SH221974 -21.2000 174.000 -1 -21.2000 174.000 TC 35 -21.2000 174.000 2 -21.2000 174.000 TC 30 13 257
1974046S20182 1974 14 SP MM NOT_NAMED 1974-02-16 03:00:00 TS -21.3144 173.404 main 542 542 P________PP_P_ SH221974 -21.3071 173.412 -1 -21.3071 173.412 TC 35 -21.3366 173.387 2 -21.3070 173.405 TC 30 11 258
1974046S20182 1974 14 SP MM NOT_NAMED 1974-02-16 06:00:00 TS -21.4138 172.888 main 589 562 O________OP_O_ jtwc_sh SH221974 -21.4000 172.900 -1 -21.4000 172.900 TC 35 -21.4553 172.851 2 -21.4000 172.900 TC 30 10 256
1974046S20182 1974 14 SP MM NOT_NAMED 1974-02-16 09:00:00 TS -21.5496 172.382 main 562 508 P________PP_P_ SH221974 -21.5423 172.385 -1 -21.5423 172.385 TC 35 -21.5714 172.365 2 -21.5423 172.392 TC 32 10 253
1974046S20182 1974 14 SP MM NOT_NAMED 1974-02-16 12:00:00 TS -21.7000 171.900 main 508 465 O________OO_O_ jtwc_sh SH221974 -21.7000 171.900 -1 -21.7000 171.900 TC 35 -21.7000 171.900 2 -21.7000 171.900 TC 35 9 252
1974046S20182 1974 14 SP MM NOT_NAMED 1974-02-16 15:00:00 TS -21.8385 171.428 main 455 412 P________PP_P_ SH221974 -21.8423 171.450 -1 -21.8423 171.450 TC 35 -21.8273 171.422 2 -21.8424 171.392 TC 35 9 251
1974046S20182 1974 14 SP MM NOT_NAMED 1974-02-16 18:00:00 TS -21.9935 170.964 main 412 360 O________OP_O_ jtwc_sh SH221974 -22.0000 171.000 -1 -22.0000 171.000 TC 35 -21.9738 170.956 2 -22.0000 170.900 TC 35 9 249
1974046S20182 1974 14 SP MM NOT_NAMED 1974-02-16 21:00:00 TS -22.1670 170.493 main 360 308 P________PP_P_ SH221974 -22.1698 170.515 -1 -22.1698 170.515 TC 35 -22.1585 170.487 2 -22.1697 170.457 TC 37 10 246
1974046S20182 1974 14 SP MM NOT_NAMED 1974-02-17 00:00:00 TS -22.4000 170.000 main 308 260 O________OO_O_ jtwc_sh SH221974 -22.4000 170.000 -1 -22.4000 170.000 TC 35 -22.4000 170.000 2 -22.4000 170.000 TC 40 11 240
1974046S20182 1974 14 SP MM NOT_NAMED 1974-02-17 03:00:00 TS -22.7214 169.460 main 260 214 P________PP_P_ SH221974 -22.7199 169.457 -1 -22.7199 169.457 TC 35 -22.7257 169.460 2 -22.7200 169.465 TC 40 12 235
1974046S20182 1974 14 SP MM NOT_NAMED 1974-02-17 06:00:00 TS -23.1013 168.900 main 214 188 O________OP_O_ jtwc_sh SH221974 -23.1000 168.900 -1 -23.1000 168.900 TC 35 -23.1052 168.901 2 -23.1000 168.900 TC 40 13 233
1974046S20182 1974 14 SP MM NOT_NAMED 1974-02-17 09:00:00 TS -23.5035 168.350 main 188 183 P________PP_P_ SH221974 -23.4997 168.357 -1 -23.4997 168.357 TC 35 -23.5070 168.341 2 -23.5074 168.343 TC 42 13 232
1974046S20182 1974 14 SP MM NOT_NAMED 1974-02-17 12:00:00 TS -23.9000 167.800 main 191 186 O________OO_O_ jtwc_sh SH221974 -23.9000 167.800 -1 -23.9000 167.800 TC 35 -23.9000 167.800 2 -23.9000 167.800 TC 45 13 234
1974046S20182 1974 14 SP MM NOT_NAMED 1974-02-17 15:00:00 TS -24.2494 167.215 main 203 203 P________PP_P_ SH221974 -24.2652 167.170 -1 -24.2652 167.170 TC 35 -24.2599 167.235 2 -24.2073 167.285 TC 45 12 237
1974046S20182 1974 14 SP MM NOT_NAMED 1974-02-17 18:00:00 TS -24.5758 166.675 main 245 245 O________OP_O_ jtwc_sh SH221974 -24.6000 166.600 -1 -24.6000 166.600 TC 35 -24.6030 166.701 2 -24.5000 166.800 TC 45 11 234
1974046S20182 1974 14 SP MM NOT_NAMED 1974-02-17 21:00:00 TS -24.9073 166.215 main 284 284 P________PP_P_ SH221974 -24.9223 166.167 -1 -24.9223 166.167 TC 35 -24.9195 166.241 2 -24.8652 166.283 TC 47 9 228
1974046S20182 1974 14 SP MM NOT_NAMED 1974-02-18 00:00:00 TS -25.2000 165.900 main 323 323 O________OO_O_ jtwc_sh SH221974 -25.2000 165.900 -1 -25.2000 165.900 TC 35 -25.2000 165.900 2 -25.2000 165.900 TC 50 7 217
1974046S20182 1974 14 SP MM NOT_NAMED 1974-02-18 03:00:00 TS -25.4238 165.781 main 347 347 P________PP_P_ SH221974 -25.4149 165.805 -1 -25.4149 165.805 TC 35 -25.4431 165.726 2 -25.4223 165.790 TC 50 4 196
1974046S20182 1974 14 SP MM NOT_NAMED 1974-02-18 06:00:00 TS -25.6129 165.768 main 369 369 O________OP_O_ jtwc_sh SH221974 -25.6000 165.800 -1 -25.6000 165.800 TC 35 -25.6514 165.671 2 -25.6000 165.800 TC 50 4 185
1974046S20182 1974 14 SP MM NOT_NAMED 1974-02-18 09:00:00 TS -25.8141 165.732 main 393 393 P________PP_P_ SH221974 -25.8075 165.750 -1 -25.8075 165.750 TC 35 -25.8341 165.680 2 -25.8075 165.750 TC 47 4 189
1974046S20182 1974 14 SP MM NOT_NAMED 1974-02-18 12:00:00 TS -26.0000 165.700 main 414 414 O________OO_O_ jtwc_sh SH221974 -26.0000 165.700 -1 -26.0000 165.700 TC 35 -26.0000 165.700 2 -26.0000 165.700 TC 45 3 191
1974046S20182 1974 14 SP MM NOT_NAMED 1974-02-18 15:00:00 TS -26.1531 165.653 main 436 436 P________PP_P_ SH221974 -26.1575 165.650 -1 -26.1575 165.650 TC 35 -26.1400 165.662 2 -26.1575 165.650 TC 45 3 197
1974046S20182 1974 14 SP MM NOT_NAMED 1974-02-18 18:00:00 TS -26.2925 165.605 main 449 449 O________OP_O_ jtwc_sh SH221974 -26.3000 165.600 -1 -26.3000 165.600 TC 35 -26.2699 165.622 2 -26.3000 165.600 TC 45 3 196
1974046S20182 1974 14 SP MM NOT_NAMED 1974-02-18 21:00:00 TS -26.4244 165.561 main 460 460 P________PP_P_ SH221974 -26.4275 165.557 -1 -26.4275 165.557 TC 35 -26.4149 165.571 2 -26.4275 165.557 TC 42 3 197
1974046S20182 1974 14 SP MM NOT_NAMED 1974-02-19 00:00:00 TS -26.6000 165.500 main 484 484 O________OO_O_ jtwc_sh SH221974 -26.6000 165.500 -1 -26.6000 165.500 TC 35 -26.6000 165.500 2 -26.6000 165.500 TC 40 5 196
1974046S20182 1974 14 SP MM NOT_NAMED 1974-02-19 03:00:00 TS -26.8804 165.416 main 519 519 P________PP_P_ SH221974 -26.8775 165.415 -1 -26.8775 165.415 TC 35 -26.8892 165.417 2 -26.8775 165.415 TC 40 6 196
1974046S20182 1974 14 SP MM NOT_NAMED 1974-02-19 06:00:00 TS -27.2037 165.303 main 554 554 O________OP_O_ jtwc_sh SH221974 -27.2000 165.300 -1 -27.2000 165.300 TC 35 -27.2148 165.310 2 -27.2000 165.300 TC 40 7 198
1974046S20182 1974 14 SP MM NOT_NAMED 1974-02-19 09:00:00 TS -27.5307 165.173 main 589 589 P________PP_P_ SH221974 -27.5299 165.173 -1 -27.5299 165.173 TC 35 -27.5329 165.173 2 -27.5299 165.173 TC 40 7 204
1974046S20182 1974 14 SP MM NOT_NAMED 1974-02-19 12:00:00 TS -27.8000 165.000 main 627 627 O________OO_O_ jtwc_sh SH221974 -27.8000 165.000 -1 -27.8000 165.000 TC 35 -27.8000 165.000 2 -27.8000 165.000 TC 40 5 223
1974046S20182 1974 14 SP MM NOT_NAMED 1974-02-19 15:00:00 TS -27.9228 164.763 main 643 643 P________PP_P_ SH221974 -27.9300 164.765 -1 -27.9300 164.765 TC 35 -27.9010 164.757 2 -27.9300 164.765 TC 37 5 247
1974046S20182 1974 14 SP MM NOT_NAMED 1974-02-19 18:00:00 TS -27.9889 164.496 main 663 663 O________OP_O_ jtwc_sh SH221974 -28.0000 164.500 -1 -28.0000 164.500 TC 35 -27.9556 164.484 2 -28.0000 164.500 TC 35 5 255
1974046S20182 1974 14 SP MM NOT_NAMED 1974-02-19 21:00:00 TS -28.0531 164.227 main 684 684 P________PP_P_ SH221974 -28.0625 164.227 -1 -28.0625 164.227 TC 35 -28.0323 164.219 2 -28.0550 164.235 TC 32 5 244
1974046S20182 1974 14 SP MM NOT_NAMED 1974-02-20 00:00:00 TS -28.2000 164.000 main 701 701 O________OO_O_ jtwc_sh SH221974 -28.2000 164.000 -1 -28.2000 164.000 TC 35 -28.2000 164.000 2 -28.2000 164.000 TC 30 6 216
1974046S20182 1974 14 SP MM NOT_NAMED 1974-02-20 03:00:00 TS -28.5036 163.851 main 736 736 P________PP_P_ SH221974 -28.4824 163.870 -1 -28.4824 163.870 TC 30 -28.5097 163.853 2 -28.5400 163.813 TC 27 8 196
1974046S20182 1974 14 SP MM NOT_NAMED 1974-02-20 06:00:00 TS -28.9349 163.767 main 781 781 O________OP_O_ jtwc_sh SH221974 -28.9000 163.800 -1 -28.9000 163.800 TC 25 -28.9396 163.768 2 -29.0000 163.700 TC 25 10 187
1974046S20182 1974 14 SP MM NOT_NAMED 1974-02-20 09:00:00 TS -29.4475 163.723 main 837 837 P________PP_P_ SH221974 -29.4225 163.748 -1 -29.4225 163.748 TC 25 -29.4498 163.724 2 -29.4950 163.675 TC 22 11 183
1974046S20182 1974 14 SP MM NOT_NAMED 1974-02-20 12:00:00 TS -30.0000 163.700 main 899 O________OO_O_ jtwc_sh SH221974 -30.0000 163.700 -1 -30.0000 163.700 TC 25 -30.0000 163.700 6 -30.0000 163.700 TC 20 11 0

Digital Typhoon Data and Search

About IBTrACS Database

This database is a web-friendly format of International Best Track Archive for Climate Stewardship (IBTrACS), a global best track data archive curated by NOAA dating back to 1842.

Updated: 2021-10-19